createdAt,value
2022-12-18T00:00:59.741Z,77.46
2022-12-18T00:04:24.648Z,77.25
2022-12-18T00:07:47.656Z,76.31
2022-12-18T00:11:11.036Z,76.70
2022-12-18T00:14:32.801Z,77.34
2022-12-18T00:17:54.498Z,77.11
2022-12-18T00:21:16.490Z,77.02
2022-12-18T00:24:39.580Z,76.76
2022-12-18T00:28:01.111Z,76.00
2022-12-18T00:31:24.740Z,75.95
2022-12-18T00:34:48.526Z,75.73
2022-12-18T00:38:10.708Z,75.32
2022-12-18T00:41:51.906Z,75.35
2022-12-18T00:45:13.491Z,75.61
2022-12-18T00:48:35.126Z,76.10
2022-12-18T00:51:59.778Z,75.43
2022-12-18T00:55:21.528Z,76.40
2022-12-18T00:58:44.735Z,75.31
2022-12-18T01:02:06.548Z,75.48
2022-12-18T01:05:28.312Z,76.19
2022-12-18T01:08:50.079Z,76.59
2022-12-18T01:12:11.449Z,76.61
2022-12-18T01:15:34.727Z,76.50
2022-12-18T01:18:57.212Z,76.45
2022-12-18T01:22:18.824Z,76.63
2022-12-18T01:25:40.869Z,76.79
2022-12-18T01:29:04.979Z,76.83
2022-12-18T01:32:27.588Z,75.36
2022-12-18T01:35:49.267Z,74.87
2022-12-18T01:39:14.167Z,74.88
2022-12-18T01:42:37.453Z,75.82
2022-12-18T01:46:01.526Z,75.27
2022-12-18T01:49:24.816Z,75.28
2022-12-18T01:52:49.651Z,75.84
2022-12-18T01:56:15.631Z,76.11
2022-12-18T01:59:38.928Z,75.62
2022-12-18T02:03:01.878Z,76.08
2022-12-18T02:06:34.636Z,75.36
2022-12-18T02:10:03.335Z,75.51
2022-12-18T02:13:32.257Z,75.24
2022-12-18T02:17:00.349Z,75.65
2022-12-18T02:20:26.826Z,74.78
2022-12-18T02:23:58.612Z,76.15
2022-12-18T02:27:22.713Z,76.34
2022-12-18T02:30:47.550Z,75.11
2022-12-18T02:34:11.371Z,75.22
2022-12-18T02:37:36.377Z,75.58
2022-12-18T02:41:02.377Z,76.27
2022-12-18T02:44:25.624Z,75.32
2022-12-18T02:47:51.682Z,75.97
2022-12-18T02:51:19.585Z,76.26
2022-12-18T02:54:58.201Z,76.03
2022-12-18T02:58:22.993Z,76.55
2022-12-18T03:01:57.226Z,77.10
2022-12-18T03:05:23.009Z,76.50
2022-12-18T03:08:48.756Z,76.74
2022-12-18T03:12:26.568Z,77.05
2022-12-18T03:15:55.034Z,76.23
2022-12-18T03:19:21.616Z,76.00
2022-12-18T03:22:50.148Z,76.43
2022-12-18T03:26:17.445Z,76.38
2022-12-18T03:29:44.756Z,76.20
2022-12-18T03:33:12.973Z,76.17
2022-12-18T03:36:40.706Z,75.75
2022-12-18T03:40:02.612Z,75.09
2022-12-18T03:43:38.324Z,74.82
2022-12-18T03:47:07.568Z,74.59
2022-12-18T03:50:39.812Z,74.39
2022-12-18T03:54:05.959Z,74.78
2022-12-18T03:57:35.076Z,74.06
2022-12-18T04:01:03.368Z,75.10
2022-12-18T04:04:27.094Z,74.88
2022-12-18T04:07:51.768Z,74.66
2022-12-18T04:11:14.464Z,75.10
2022-12-18T04:14:36.680Z,75.55
2022-12-18T04:17:59.720Z,75.63
2022-12-18T04:21:27.595Z,74.82
2022-12-18T04:24:49.410Z,75.34
2022-12-18T04:28:21.611Z,74.78
2022-12-18T04:31:43.762Z,74.89
2022-12-18T04:35:11.420Z,75.49
2022-12-18T04:38:34.512Z,74.66
2022-12-18T04:42:02.693Z,75.41
2022-12-18T04:45:25.523Z,75.26
2022-12-18T04:48:48.951Z,75.23
2022-12-18T04:52:10.491Z,74.36
2022-12-18T04:55:32.305Z,75.09
2022-12-18T04:58:54.133Z,74.19
2022-12-18T05:02:16.869Z,74.92
2022-12-18T05:05:38.512Z,74.80
2022-12-18T05:09:00.779Z,74.47
2022-12-18T05:12:22.305Z,74.33
2022-12-18T05:15:44.059Z,73.58
2022-12-18T05:19:07.147Z,74.09
2022-12-18T05:22:28.964Z,73.27
2022-12-18T05:25:53.418Z,73.61
2022-12-18T05:29:15.332Z,73.78
2022-12-18T05:32:36.629Z,73.60
2022-12-18T05:36:05.299Z,73.91
2022-12-18T05:39:26.686Z,73.84
2022-12-18T05:42:48.564Z,73.93
2022-12-18T05:46:13.976Z,73.27
2022-12-18T05:49:35.799Z,73.69
2022-12-18T05:52:58.964Z,73.04
2022-12-18T05:56:22.170Z,73.10
2022-12-18T05:59:43.793Z,72.92
2022-12-18T06:03:06.060Z,72.94
2022-12-18T06:06:29.526Z,73.04
2022-12-18T06:09:52.474Z,72.81
2022-12-18T06:13:13.765Z,73.00
2022-12-18T06:16:35.681Z,73.02
2022-12-18T06:19:57.573Z,73.10
2022-12-18T06:23:19.635Z,73.25
2022-12-18T06:26:42.600Z,73.14
2022-12-18T06:30:04.589Z,73.25
2022-12-18T06:33:28.973Z,73.62
2022-12-18T06:36:50.357Z,73.63
2022-12-18T06:40:12.101Z,73.70
2022-12-18T06:43:35.366Z,73.78
2022-12-18T06:46:57.257Z,73.44
2022-12-18T06:50:18.880Z,73.29
2022-12-18T06:53:40.820Z,72.86
2022-12-18T06:57:02.765Z,73.19
2022-12-18T07:00:25.952Z,73.60
2022-12-18T07:03:47.914Z,73.22
2022-12-18T07:07:09.703Z,73.36
2022-12-18T07:10:31.565Z,73.40
2022-12-18T07:13:55.404Z,73.37
2022-12-18T07:17:18.643Z,73.53
2022-12-18T07:20:40.621Z,73.36
2022-12-18T07:24:02.279Z,73.23
2022-12-18T07:27:23.765Z,73.28
2022-12-18T07:30:45.568Z,73.31
2022-12-18T07:34:12.334Z,73.27
2022-12-18T07:37:33.977Z,73.17
2022-12-18T07:40:55.877Z,73.24
2022-12-18T07:44:17.040Z,73.13
2022-12-18T07:47:39.031Z,73.06
2022-12-18T07:51:01.854Z,73.41
2022-12-18T07:54:23.374Z,73.27
2022-12-18T07:57:55.376Z,73.18
2022-12-18T08:01:21.350Z,73.18
2022-12-18T08:04:43.388Z,73.28
2022-12-18T08:08:07.200Z,73.55
2022-12-18T08:11:30.646Z,73.76
2022-12-18T08:14:52.240Z,73.81
2022-12-18T08:18:14.641Z,74.03
2022-12-18T08:21:36.318Z,74.23
2022-12-18T08:24:59.531Z,73.62
2022-12-18T08:28:21.484Z,73.70
2022-12-18T08:31:43.334Z,74.32
2022-12-18T08:35:05.523Z,73.46
2022-12-18T08:38:27.413Z,73.82
2022-12-18T08:42:09.737Z,73.94
2022-12-18T08:45:31.654Z,73.60
2022-12-18T08:48:54.439Z,73.94
2022-12-18T08:52:16.220Z,73.94
2022-12-18T08:55:37.975Z,74.36
2022-12-18T08:59:01.393Z,73.58
2022-12-18T09:02:23.000Z,74.30
2022-12-18T09:05:45.242Z,74.40
2022-12-18T09:09:07.077Z,74.44
2022-12-18T09:12:28.812Z,74.66
2022-12-18T09:15:53.385Z,74.09
2022-12-18T09:19:15.356Z,74.58
2022-12-18T09:22:37.058Z,74.91
2022-12-18T09:26:01.243Z,75.34
2022-12-18T09:29:22.988Z,75.31
2022-12-18T09:32:45.814Z,75.45
2022-12-18T09:36:09.693Z,75.76
2022-12-18T09:39:31.468Z,75.08
2022-12-18T09:42:57.673Z,75.90
2022-12-18T09:46:26.380Z,75.31
2022-12-18T09:49:53.399Z,75.51
2022-12-18T09:53:19.559Z,75.08
2022-12-18T09:56:43.503Z,75.15
2022-12-18T10:00:13.688Z,75.43
2022-12-18T10:03:36.366Z,75.17
2022-12-18T10:07:09.074Z,76.15
2022-12-18T10:10:40.749Z,76.16
2022-12-18T10:14:11.910Z,75.03
2022-12-18T10:17:42.128Z,75.00
2022-12-18T10:21:10.434Z,75.91
2022-12-18T10:24:40.211Z,74.95
2022-12-18T10:28:12.292Z,76.17
2022-12-18T10:31:33.946Z,75.93
2022-12-18T10:35:00.729Z,76.27
2022-12-18T10:38:24.926Z,76.42
2022-12-18T10:41:48.175Z,76.37
2022-12-18T10:45:12.740Z,76.71
2022-12-18T10:48:38.076Z,76.60
2022-12-18T10:52:16.999Z,76.25
2022-12-18T10:55:41.445Z,75.70
2022-12-18T10:59:06.417Z,75.22
2022-12-18T11:02:30.863Z,75.38
2022-12-18T11:06:05.260Z,76.64
2022-12-18T11:09:28.464Z,76.53
2022-12-18T11:12:50.623Z,76.09
2022-12-18T11:16:21.760Z,75.94
2022-12-18T11:19:43.675Z,75.99
2022-12-18T11:23:08.313Z,76.22
2022-12-18T11:26:36.891Z,74.91
2022-12-18T11:30:11.153Z,75.71
2022-12-18T11:33:34.794Z,76.12
2022-12-18T11:36:56.847Z,75.10
2022-12-18T11:40:22.114Z,75.50
2022-12-18T11:43:50.400Z,75.80
2022-12-18T11:47:20.825Z,75.95
2022-12-18T11:50:51.129Z,74.87
2022-12-18T11:54:15.400Z,75.25
2022-12-18T11:57:44.349Z,75.03
2022-12-18T12:01:16.048Z,75.85
2022-12-18T12:05:03.299Z,75.86
2022-12-18T12:08:38.643Z,74.32
2022-12-18T12:12:18.789Z,74.74
2022-12-18T12:15:48.664Z,76.19
2022-12-18T12:19:26.191Z,75.03
2022-12-18T12:22:56.216Z,75.37
2022-12-18T12:26:28.338Z,74.63
2022-12-18T12:30:03.302Z,74.82
2022-12-18T12:33:36.948Z,74.31
2022-12-18T12:41:03.146Z,75.94
2022-12-18T12:44:32.502Z,75.02
2022-12-18T12:47:55.467Z,74.84
2022-12-18T12:51:21.641Z,75.63
2022-12-18T12:54:43.894Z,75.80
2022-12-18T12:58:13.826Z,75.06
2022-12-18T13:01:44.486Z,75.88
2022-12-18T13:05:17.550Z,75.93
2022-12-18T13:08:55.741Z,74.93
2022-12-18T13:12:35.866Z,74.50
2022-12-18T13:16:08.357Z,75.02
2022-12-18T13:19:31.621Z,75.42
2022-12-18T13:22:53.129Z,74.54
2022-12-18T13:26:32.976Z,74.08
2022-12-18T13:29:54.625Z,73.79
2022-12-18T13:37:54.400Z,74.74
2022-12-18T13:41:29.010Z,75.20
2022-12-18T13:44:51.161Z,74.15
2022-12-18T13:48:22.972Z,75.17
2022-12-18T13:51:47.374Z,73.98
2022-12-18T13:55:20.600Z,74.76
2022-12-18T13:58:43.506Z,73.57
2022-12-18T14:02:15.767Z,74.33
2022-12-18T14:05:40.259Z,74.27
2022-12-18T14:09:05.334Z,73.60
2022-12-18T14:12:51.599Z,74.40
2022-12-18T14:16:17.457Z,73.32
2022-12-18T14:19:42.953Z,73.79
2022-12-18T14:23:04.841Z,73.94
2022-12-18T14:26:30.251Z,73.74
2022-12-18T14:29:54.017Z,73.32
2022-12-18T14:33:17.065Z,72.69
2022-12-18T14:36:40.896Z,72.56
2022-12-18T14:40:10.947Z,73.85
2022-12-18T14:43:35.442Z,73.67
2022-12-18T14:46:58.786Z,73.87
2022-12-18T14:50:20.480Z,74.11
2022-12-18T14:53:49.131Z,73.95
2022-12-18T14:57:23.748Z,74.30
2022-12-18T15:00:45.678Z,74.43
2022-12-18T15:04:28.409Z,74.96
2022-12-18T15:07:51.552Z,73.94
2022-12-18T15:11:45.516Z,74.27
2022-12-18T15:15:28.159Z,74.19
2022-12-18T15:18:49.933Z,74.28
2022-12-18T15:22:28.325Z,74.38
2022-12-18T15:25:56.351Z,74.40
2022-12-18T15:29:21.428Z,74.04
2022-12-18T15:32:46.960Z,74.31
2022-12-18T15:36:12.621Z,74.73
2022-12-18T15:39:36.778Z,74.81
2022-12-18T15:43:15.786Z,74.90
2022-12-18T15:46:37.243Z,74.35
2022-12-18T15:49:59.067Z,73.86
2022-12-18T15:53:21.305Z,73.92
2022-12-18T15:57:01.898Z,73.90
2022-12-18T16:00:23.450Z,73.67
2022-12-18T16:03:45.102Z,74.83
2022-12-18T16:07:16.167Z,74.00
2022-12-18T16:10:43.268Z,74.19
2022-12-18T16:14:06.677Z,75.04
2022-12-18T16:17:29.910Z,74.69
2022-12-18T16:20:51.797Z,73.73
2022-12-18T16:24:17.620Z,74.02
2022-12-18T16:27:39.253Z,75.04
2022-12-18T16:31:02.226Z,75.10
2022-12-18T16:34:28.847Z,74.31
2022-12-18T16:37:50.690Z,74.71
2022-12-18T16:41:36.296Z,74.39
2022-12-18T16:44:58.210Z,73.64
2022-12-18T16:48:20.829Z,73.86
2022-12-18T16:51:42.341Z,74.70
2022-12-18T16:55:04.631Z,73.64
2022-12-18T16:58:26.228Z,74.60
2022-12-18T17:01:48.277Z,74.48
2022-12-18T17:05:11.707Z,74.73
2022-12-18T17:08:33.648Z,74.14
2022-12-18T17:11:55.372Z,74.65
2022-12-18T17:15:16.829Z,74.08
2022-12-18T17:18:40.029Z,73.85
2022-12-18T17:22:02.738Z,73.61
2022-12-18T17:25:24.083Z,73.33
2022-12-18T17:28:47.167Z,73.96
2022-12-18T17:32:08.837Z,73.12
2022-12-18T17:35:31.526Z,74.54
2022-12-18T17:38:55.455Z,74.51
2022-12-18T17:42:17.032Z,73.26
2022-12-18T17:45:39.635Z,74.48
2022-12-18T17:49:02.980Z,73.95
2022-12-18T17:52:24.588Z,74.41
2022-12-18T17:55:56.546Z,73.93
2022-12-18T17:59:17.993Z,73.68
2022-12-18T18:02:40.631Z,74.24
2022-12-18T18:06:03.747Z,73.99
2022-12-18T18:09:25.131Z,74.35
2022-12-18T18:13:14.127Z,73.18
2022-12-18T18:16:39.181Z,73.90
2022-12-18T18:20:00.699Z,73.77
2022-12-18T18:23:22.573Z,74.04
2022-12-18T18:26:46.372Z,74.11
2022-12-18T18:30:11.474Z,73.72
2022-12-18T18:33:32.904Z,73.05
2022-12-18T18:36:54.480Z,73.70
2022-12-18T18:40:16.448Z,72.47
2022-12-18T18:43:38.269Z,72.54
2022-12-18T18:47:02.265Z,73.06
2022-12-18T18:50:27.138Z,73.43
2022-12-18T18:53:50.200Z,72.99
2022-12-18T18:57:20.477Z,73.00
2022-12-18T19:00:42.447Z,72.66
2022-12-18T19:04:06.638Z,73.33
2022-12-18T19:07:30.420Z,72.96
2022-12-18T19:10:57.671Z,72.92
2022-12-18T19:14:20.302Z,72.40
2022-12-18T19:17:41.878Z,72.13
2022-12-18T19:21:07.802Z,73.34
2022-12-18T19:24:29.786Z,73.13
2022-12-18T19:27:51.050Z,72.03
2022-12-18T19:31:14.774Z,72.87
2022-12-18T19:34:37.800Z,72.50
2022-12-18T19:38:00.852Z,72.07
2022-12-18T19:41:23.161Z,73.34
2022-12-18T19:44:46.573Z,74.37
2022-12-18T19:48:09.418Z,73.13
2022-12-18T19:51:32.625Z,72.93
2022-12-18T19:54:55.665Z,72.80
2022-12-18T19:58:17.451Z,73.18
2022-12-18T20:01:41.021Z,71.90
2022-12-18T20:05:03.555Z,72.61
2022-12-18T20:08:25.144Z,72.62
2022-12-18T20:11:48.041Z,72.69
2022-12-18T20:15:11.255Z,72.30
2022-12-18T20:18:33.065Z,71.60
2022-12-18T20:21:55.666Z,71.97
2022-12-18T20:25:20.291Z,71.71
2022-12-18T20:28:43.432Z,72.80
2022-12-18T20:32:05.404Z,72.09
2022-12-18T20:35:28.229Z,73.09
2022-12-18T20:38:50.892Z,73.17
2022-12-18T20:42:12.620Z,72.00
2022-12-18T20:45:35.499Z,73.08
2022-12-18T20:48:57.996Z,72.26
2022-12-18T20:52:19.637Z,73.00
2022-12-18T20:55:44.714Z,71.61
2022-12-18T20:59:07.279Z,71.66
2022-12-18T21:02:30.441Z,71.73
2022-12-18T21:05:52.452Z,71.34
2022-12-18T21:09:13.815Z,72.44
2022-12-18T21:12:48.244Z,72.34
2022-12-18T21:16:18.943Z,72.61
2022-12-18T21:19:42.553Z,72.29
2022-12-18T21:23:16.524Z,72.57
2022-12-18T21:26:45.458Z,71.75
2022-12-18T21:30:08.913Z,71.79
2022-12-18T21:33:30.610Z,72.44
2022-12-18T21:36:54.365Z,71.61
2022-12-18T21:40:16.066Z,72.33
2022-12-18T21:43:56.146Z,71.68
2022-12-18T21:47:23.013Z,71.64
2022-12-18T21:50:44.534Z,71.83
2022-12-18T21:54:07.479Z,72.84
2022-12-18T21:57:29.477Z,71.70
2022-12-18T22:00:52.017Z,71.75
2022-12-18T22:04:14.085Z,72.37
2022-12-18T22:07:35.397Z,72.64
2022-12-18T22:10:58.627Z,71.81
2022-12-18T22:14:21.519Z,73.06
2022-12-18T22:17:43.187Z,72.08
2022-12-18T22:21:06.469Z,72.65
2022-12-18T22:24:29.798Z,72.88
2022-12-18T22:28:06.636Z,72.37
2022-12-18T22:31:28.214Z,72.73
2022-12-18T22:34:49.799Z,72.25
2022-12-18T22:38:11.861Z,72.33
2022-12-18T22:41:33.403Z,73.25
2022-12-18T22:44:56.475Z,72.86
2022-12-18T22:48:18.156Z,71.93
2022-12-18T22:51:40.923Z,71.79
2022-12-18T22:55:02.208Z,71.62
2022-12-18T22:58:24.486Z,71.74
2022-12-18T23:01:48.099Z,72.94
2022-12-18T23:05:10.805Z,73.02
2022-12-18T23:08:32.067Z,73.21
2022-12-18T23:11:53.195Z,72.39
2022-12-18T23:15:14.576Z,72.01
2022-12-18T23:18:39.781Z,72.77
2022-12-18T23:22:02.892Z,72.97
2022-12-18T23:25:25.910Z,72.22
2022-12-18T23:28:47.918Z,71.55
2022-12-18T23:32:09.763Z,71.63
2022-12-18T23:35:32.692Z,71.98
2022-12-18T23:38:55.845Z,71.65
2022-12-18T23:42:17.553Z,71.77
2022-12-18T23:45:39.837Z,71.32
2022-12-18T23:49:03.430Z,72.56
2022-12-18T23:52:28.886Z,72.24
2022-12-18T23:55:50.309Z,72.58
2022-12-18T23:59:14.104Z,71.56
